Albemarle, North Carolina
Current Conditions -  °F | °C
As of 11:35 AM on Sunday 23 Nov 2014 (Local Time) from KVUJ Reporting Station
Light Rain Light Rain  
Wind Chill: 46°   Ceiling: 2200
Heat Index: 48°   Visibility: 10mi
Dew Point: 48°   Wind: 6mph
Humidity: 99%   Direction: 50°NE
Pressure: 30.17"   Gusts: NA
Location:  35.35°N, 80.19°W
Report Text: KVUJ 231635Z AUTO 05005KT 10SM -RA SCT009 BKN022 OVC070 09/09 A3017 RMK AO2 P0001 T00910089
Loading
Personal Weather Stations






























Interactive Weather Map New forecast layout! Learn more

10-Day Weather Forecast

Advertisements
Track Severe Weather on mobile